Statia Glory — V7UF4 — position and weather

sailwx.info

Track history (hours):
 
Tides and Currents Weather Stations Pressure Air Temp Water Temp Dewpoint Dewpoint Depression Visibility Wind Speed Wind Dir Waves Ship Positions

Statia Glory

Last reported at 2018-Feb-17 18:08 UTC. Time now 2018-Feb-17 19:00 UTC.
Position N 17°29' W 063°00'.

Length 28 m; draft 4.1 m.

Type: Tug. MMSI: 538003938.

Date/timePositionNaut miles runAvg speedWind from/ knotsBaromVisibWave heightAir tempDewpointWater temp
2018-Feb-17 18:08N 17°29' W 063°00'0 0.0
2018-Feb-17 17:46N 17°29' W 063°00'0 0.0
2018-Feb-17 17:21N 17°29' W 063°00'0 0.0
2018-Feb-17 16:59N 17°29' W 063°00'0 0.0
2018-Feb-17 16:19N 17°29' W 063°00'0 0.0
2018-Feb-17 16:00N 17°29' W 063°00'0 0.0
2018-Feb-17 15:27N 17°29' W 063°00'0 0.0
2018-Feb-17 15:00N 17°29' W 063°00'0 0.0
2018-Feb-17 14:25N 17°29' W 063°00'0 0.0
2018-Feb-17 14:00N 17°29' W 063°00'0 0.0
2018-Feb-17 13:17N 17°29' W 063°00'0 0.2
2018-Feb-17 11:39N 17°29' W 063°00'0 0.1
2018-Feb-17 11:25N 17°29' W 063°00'0 0.0
2018-Feb-17 10:50N 17°29' W 063°00'0 0.5
2018-Feb-17 10:25N 17°29' W 062°60'0 0.0
2018-Feb-17 09:30N 17°29' W 062°60'0 0.0
2018-Feb-17 07:48N 17°29' W 062°60'0 0.0
2018-Feb-17 07:28N 17°29' W 062°60'0 0.0
2018-Feb-17 06:25N 17°29' W 062°60'0 0.0
2018-Feb-17 04:52N 17°29' W 062°60'0 0.0
2018-Feb-17 04:12N 17°29' W 062°60'0 0.0
2018-Feb-17 03:05N 17°29' W 062°60'0 0.0
2018-Feb-17 02:41N 17°29' W 062°60'0 0.1
2018-Feb-17 02:29N 17°29' W 062°60'0 0.0
2018-Feb-17 01:52N 17°29' W 062°60'7 2.9
2018-Feb-16 23:26N 17°35' W 063°03'3 6.0
2018-Feb-16 22:56N 17°38' W 063°04'3 5.8
2018-Feb-16 22:28N 17°41' W 063°04'3 5.9
2018-Feb-16 22:00N 17°44' W 063°04'4 6.1
2018-Feb-16 21:24N 17°47' W 063°04'3 6.0
2018-Feb-16 20:54N 17°50' W 063°05'4 5.8
2018-Feb-16 20:14N 17°54' W 063°05'1 5.7
2018-Feb-16 19:59N 17°55' W 063°05'4 5.5
2018-Feb-16 19:16N 17°59' W 063°05'2 5.3
2018-Feb-16 18:57N 18°00' W 063°03'0 0.1
2018-Feb-16 15:26N 18°00' W 063°03'0 0.6
2018-Feb-16 14:59N 18°01' W 063°03'0 0.2
2018-Feb-16 14:29N 18°00' W 063°03'0 0.1
2018-Feb-16 11:30N 18°01' W 063°03'0 0.4
2018-Feb-16 10:56N 18°01' W 063°03'0 0.0
2018-Feb-16 09:40N 18°01' W 063°03'0 0.0
2018-Feb-16 07:47N 18°01' W 063°03'0 0.0
2018-Feb-16 04:05N 18°01' W 063°03'0 0.0
2018-Feb-16 03:47N 18°01' W 063°03'0 0.0
2018-Feb-16 03:07N 18°01' W 063°03'0 0.0
2018-Feb-16 02:52N 18°01' W 063°03'0 0.0
2018-Feb-16 02:23N 18°01' W 063°03'0 0.0
2018-Feb-16 01:49N 18°01' W 063°03'0 0.1
2018-Feb-16 01:22N 18°01' W 063°03'0 0.0
2018-Feb-15 23:52N 18°01' W 063°03'0 0.0
2018-Feb-15 23:08N 18°01' W 063°03'0 0.2
2018-Feb-15 22:55N 18°01' W 063°03'0 0.0
2018-Feb-15 22:25N 18°01' W 063°03'0 0.3
2018-Feb-15 21:59N 18°01' W 063°03'0 0.0
2018-Feb-15 12:21N 18°01' W 063°03'0 0.5
2018-Feb-15 11:50N 18°01' W 063°03'0 0.0
2018-Feb-15 11:23N 18°01' W 063°03'0 0.0
2018-Feb-15 06:08N 18°01' W 063°03'0 0.0
2018-Feb-15 05:56N 18°01' W 063°03'0 0.0
2018-Feb-15 05:26N 18°01' W 063°03'0 0.0
2018-Feb-15 04:26N 18°01' W 063°03'0 0.1
2018-Feb-15 03:56N 18°01' W 063°03'0 0.1
2018-Feb-15 01:45N 18°01' W 063°03'0 0.1
2018-Feb-14 23:21N 18°01' W 063°03'0 0.0
2018-Feb-14 22:51N 18°01' W 063°03'0 0.0
2018-Feb-14 22:22N 18°01' W 063°03'0 0.0
2018-Feb-14 21:37N 18°01' W 063°03'0 0.0
2018-Feb-14 21:10N 18°01' W 063°03'0 0.4
2018-Feb-14 20:05N 18°00' W 063°03'0 1.5
2018-Feb-14 19:58N 18°00' W 063°03'1 0.5
2018-Feb-14 18:43N 18°01' W 063°03'0 0.1
2018-Feb-14 18:28N 18°01' W 063°03'0 0.0
2018-Feb-14 17:55N 18°01' W 063°03'0 0.0
2018-Feb-14 13:49N 18°01' W 063°03'0 0.1
2018-Feb-14 13:16N 18°01' W 063°03'0 0.0
2018-Feb-14 12:49N 18°01' W 063°03'0 0.0
2018-Feb-14 11:22N 18°01' W 063°03'0 0.0
2018-Feb-14 09:52N 18°01' W 063°03'0 0.0
2018-Feb-14 08:22N 18°01' W 063°03'0 0.0
2018-Feb-14 07:55N 18°01' W 063°03'0 0.0
2018-Feb-14 07:22N 18°01' W 063°03'0 0.0
2018-Feb-14 06:55N 18°01' W 063°03'0 0.0
2018-Feb-14 05:40N 18°01' W 063°03'0 0.0
2018-Feb-14 03:46N 18°01' W 063°03'0 0.0
2018-Feb-14 03:01N 18°01' W 063°03'0 0.0
2018-Feb-14 02:58N 18°01' W 063°03'0 0.0
2018-Feb-14 01:46N 18°01' W 063°03'0 0.0
2018-Feb-14 01:19N 18°01' W 063°03'0 0.0
2018-Feb-14 00:46N 18°01' W 063°03'0 0.1
2018-Feb-13 22:46N 18°01' W 063°03'0 0.8
2018-Feb-13 22:29N 18°01' W 063°03'0 0.0
2018-Feb-13 20:29N 18°01' W 063°03'0 0.0
2018-Feb-13 19:47N 18°01' W 063°03'0 0.0
2018-Feb-13 19:17N 18°01' W 063°03'0 0.0
2018-Feb-13 17:59N 18°01' W 063°03'0 0.0
2018-Feb-13 15:47N 18°01' W 063°03'1 1.9
2018-Feb-13 15:30N 18°01' W 063°03'1 0.6
2018-Feb-13 14:36N 18°01' W 063°03'0 0.0
2018-Feb-13 14:03N 18°01' W 063°03'0 0.1
2018-Feb-13 13:54N 18°01' W 063°03'0 0.0
2018-Feb-13 13:06N 18°01' W 063°03'0 0.0
2018-Feb-13 12:54N 18°01' W 063°03'0 0.1
2018-Feb-13 12:24N 18°01' W 063°03'0 0.0
2018-Feb-13 11:42N 18°01' W 063°03'0 0.0
2018-Feb-13 11:27N 18°01' W 063°03'0 0.0
2018-Feb-13 10:57N 18°01' W 063°03'0 0.0
2018-Feb-13 08:45N 18°01' W 063°03'0 0.1
2018-Feb-13 08:30N 18°01' W 063°03'0 0.0
2018-Feb-13 06:12N 18°01' W 063°03'0 0.0
2018-Feb-13 05:18N 18°01' W 063°03'0 0.0
2018-Feb-13 05:00N 18°01' W 063°03'0 0.0
2018-Feb-13 01:36N 18°01' W 063°03'0 0.0
2018-Feb-13 01:06N 18°01' W 063°03'0 0.3
2018-Feb-13 00:07N 18°00' W 063°03'0 1.4
2018-Feb-12 23:51N 18°00' W 063°03'0 0.0
2018-Feb-12 23:22N 18°00' W 063°03'0 0.0
2018-Feb-12 22:52N 18°00' W 063°03'0 0.0
2018-Feb-12 22:21N 18°00' W 063°03'0 0.0
2018-Feb-12 22:00N 18°00' W 063°03'0 0.0
2018-Feb-12 21:18N 18°00' W 063°03'0 0.0
2018-Feb-12 20:54N 18°00' W 063°03'0 0.0
2018-Feb-12 19:34N 18°00' W 063°03'0 0.0
2018-Feb-12 19:30N 18°00' W 063°03'0 0.0
2018-Feb-12 18:54N 18°00' W 063°03'1 1.3
2018-Feb-12 18:29N 18°01' W 063°03'0 0.1
2018-Feb-12 17:52N 18°01' W 063°03'0 0.0
2018-Feb-12 17:29N 18°01' W 063°03'0 0.0
2018-Feb-12 16:52N 18°01' W 063°03'0 0.0
2018-Feb-12 13:56N 18°01' W 063°03'0 0.5
2018-Feb-12 13:27N 18°00' W 063°03'0 0.5
2018-Feb-12 12:49N 18°01' W 063°03'0 0.0
2018-Feb-12 12:04N 18°01' W 063°03'0 0.1
2018-Feb-12 11:53N 18°01' W 063°03'0 0.0
2018-Feb-12 11:30N 18°01' W 063°03'0 0.4
2018-Feb-12 10:52N 18°00' W 063°03'0 0.9
2018-Feb-12 10:29N 18°00' W 063°03'0 0.0
2018-Feb-12 10:00N 18°00' W 063°03'0 0.0
2018-Feb-12 09:28N 18°00' W 063°03'0 0.0
2018-Feb-12 08:53N 18°00' W 063°03'0 0.0
2018-Feb-12 08:19N 18°00' W 063°03'0 0.0
2018-Feb-12 07:57N 18°00' W 063°03'0 0.0
2018-Feb-12 07:29N 18°00' W 063°03'0 0.0
2018-Feb-12 06:57N 18°00' W 063°03'0 0.0
2018-Feb-12 06:12N 18°00' W 063°03'0 0.0
2018-Feb-12 06:00N 18°00' W 063°03'0 0.0
2018-Feb-12 05:26N 18°00' W 063°03'0 0.0
2018-Feb-12 05:00N 18°00' W 063°03'0 0.0
2018-Feb-12 04:29N 18°00' W 063°03'0 0.0
2018-Feb-12 03:58N 18°00' W 063°03'0 0.5
2018-Feb-12 02:58N 18°01' W 063°03'0 0.0
2018-Feb-12 02:29N 18°01' W 063°03'0 0.0
2018-Feb-12 01:46N 18°01' W 063°03'0 0.0
2018-Feb-12 01:21N 18°01' W 063°03'0 0.0
2018-Feb-12 00:59N 18°01' W 063°03'0 0.0
2018-Feb-11 23:38N 18°01' W 063°03'0 0.1
2018-Feb-11 23:23N 18°01' W 063°03'0 0.0
2018-Feb-11 22:59N 18°01' W 063°03'0 0.0
2018-Feb-11 22:20N 18°01' W 063°03'0 0.0
2018-Feb-11 21:40N 18°01' W 063°03'0 0.1
2018-Feb-11 21:26N 18°01' W 063°03'0 0.0
2018-Feb-11 20:33N 18°01' W 063°03'0 0.2
2018-Feb-11 20:28N 18°01' W 063°03'0 0.0
2018-Feb-11 18:28N 18°01' W 063°03'0 0.0
2018-Feb-11 17:59N 18°01' W 063°03'0 0.0
2018-Feb-11 16:58N 18°01' W 063°03'0 0.0
2018-Feb-11 16:12N 18°01' W 063°03'0 0.0
2018-Feb-11 15:38N 18°01' W 063°03'0 0.0
2018-Feb-11 14:49N 18°01' W 063°03'0 0.0
2018-Feb-11 14:29N 18°01' W 063°03'0 0.0
2018-Feb-11 13:57N 18°01' W 063°03'0 0.0
2018-Feb-11 13:17N 18°01' W 063°03'0 0.0
2018-Feb-11 12:58N 18°01' W 063°03'0 0.1
2018-Feb-11 12:28N 18°01' W 063°03'0 0.2
2018-Feb-11 11:54N 18°01' W 063°03'0 0.0
2018-Feb-11 11:22N 18°01' W 063°03'0 0.0
2018-Feb-11 06:16N 18°01' W 063°03'0 1.6
2018-Feb-11 06:00N 18°00' W 063°03'0 0.4
2018-Feb-11 04:55N 18°01' W 063°03'0 0.0
2018-Feb-11 04:28N 18°01' W 063°03'0 0.1
2018-Feb-10 23:49N 18°01' W 063°03'0 0.8
2018-Feb-10 23:24N 18°01' W 063°03'0 0.0
2018-Feb-10 22:54N 18°01' W 063°03'0 0.0
2018-Feb-10 22:27N 18°01' W 063°03'1 0.6
2018-Feb-10 21:33N 18°01' W 063°03'0 0.0
2018-Feb-10 20:32N 18°01' W 063°03'0 0.1
2018-Feb-10 20:18N 18°01' W 063°03'0 0.0
2018-Feb-10 20:00N 18°01' W 063°03'0 0.2
2018-Feb-10 18:50N 18°01' W 063°03'0 0.3
2018-Feb-10 18:26N 18°01' W 063°03'1 2.6
2018-Feb-10 17:59N 18°00' W 063°05'2 2.2
2018-Feb-10 17:00N 17°58' W 063°06'2 4.7
2018-Feb-10 16:29N 17°56' W 063°05'2 5.0
2018-Feb-10 15:59N 17°54' W 063°04'3 4.7
2018-Feb-10 15:27N 17°51' W 063°02'2 4.5
2018-Feb-10 14:56N 17°49' W 063°02'2 4.4
2018-Feb-10 14:27N 17°47' W 063°01'2 4.3
2018-Feb-10 13:59N 17°45' W 063°01'2 4.2
2018-Feb-10 13:28N 17°43' W 063°01'3 4.1
2018-Feb-10 12:42N 17°40' W 063°01'1 4.4
2018-Feb-10 12:27N 17°39' W 063°01'2 4.1
2018-Feb-10 12:00N 17°37' W 063°02'2 4.0
2018-Feb-10 11:29N 17°35' W 063°02'2 4.2
2018-Feb-10 10:58N 17°33' W 063°03'2 4.5
2018-Feb-10 10:29N 17°31' W 063°03'8 4.9
2018-Feb-10 08:55N 17°25' W 062°58'13 5.5
2018-Feb-10 06:28N 17°16' W 062°47'  
2018-Feb-07 22:13N 17°29' W 063°00'  
Track history (hours):
 
Tides and Currents Weather Stations Pressure Air Temp Water Temp Dewpoint Dewpoint Depression Visibility Wind Speed Wind Dir Waves Ship Positions

Statia Glory

Last reported at 2018-Feb-17 18:08 UTC. Time now 2018-Feb-17 19:00 UTC.
Position N 17°29' W 063°00'.

Length 28 m; draft 4.1 m.

Type: Tug. MMSI: 538003938.

Date/timePositionNaut miles runAvg speedWind from/ knotsBaromVisibWave heightAir tempDewpointWater temp
2018-Feb-17 18:08N 17°29' W 063°00'0 0.0
2018-Feb-17 17:46N 17°29' W 063°00'0 0.0
2018-Feb-17 17:21N 17°29' W 063°00'0 0.0
2018-Feb-17 16:59N 17°29' W 063°00'0 0.0
2018-Feb-17 16:19N 17°29' W 063°00'0 0.0
2018-Feb-17 16:00N 17°29' W 063°00'0 0.0
2018-Feb-17 15:27N 17°29' W 063°00'0 0.0
2018-Feb-17 15:00N 17°29' W 063°00'0 0.0
2018-Feb-17 14:25N 17°29' W 063°00'0 0.0
2018-Feb-17 14:00N 17°29' W 063°00'0 0.0
2018-Feb-17 13:17N 17°29' W 063°00'0 0.2
2018-Feb-17 11:39N 17°29' W 063°00'0 0.1
2018-Feb-17 11:25N 17°29' W 063°00'0 0.0
2018-Feb-17 10:50N 17°29' W 063°00'0 0.5
2018-Feb-17 10:25N 17°29' W 062°60'0 0.0
2018-Feb-17 09:30N 17°29' W 062°60'0 0.0
2018-Feb-17 07:48N 17°29' W 062°60'0 0.0
2018-Feb-17 07:28N 17°29' W 062°60'0 0.0
2018-Feb-17 06:25N 17°29' W 062°60'0 0.0
2018-Feb-17 04:52N 17°29' W 062°60'0 0.0
2018-Feb-17 04:12N 17°29' W 062°60'0 0.0
2018-Feb-17 03:05N 17°29' W 062°60'0 0.0
2018-Feb-17 02:41N 17°29' W 062°60'0 0.1
2018-Feb-17 02:29N 17°29' W 062°60'0 0.0
2018-Feb-17 01:52N 17°29' W 062°60'7 2.9
2018-Feb-16 23:26N 17°35' W 063°03'3 6.0
2018-Feb-16 22:56N 17°38' W 063°04'3 5.8
2018-Feb-16 22:28N 17°41' W 063°04'3 5.9
2018-Feb-16 22:00N 17°44' W 063°04'4 6.1
2018-Feb-16 21:24N 17°47' W 063°04'3 6.0
2018-Feb-16 20:54N 17°50' W 063°05'4 5.8
2018-Feb-16 20:14N 17°54' W 063°05'1 5.7
2018-Feb-16 19:59N 17°55' W 063°05'4 5.5
2018-Feb-16 19:16N 17°59' W 063°05'2 5.3
2018-Feb-16 18:57N 18°00' W 063°03'0 0.1
2018-Feb-16 15:26N 18°00' W 063°03'0 0.6
2018-Feb-16 14:59N 18°01' W 063°03'0 0.2
2018-Feb-16 14:29N 18°00' W 063°03'0 0.1
2018-Feb-16 11:30N 18°01' W 063°03'0 0.4
2018-Feb-16 10:56N 18°01' W 063°03'0 0.0
2018-Feb-16 09:40N 18°01' W 063°03'0 0.0
2018-Feb-16 07:47N 18°01' W 063°03'0 0.0
2018-Feb-16 04:05N 18°01' W 063°03'0 0.0
2018-Feb-16 03:47N 18°01' W 063°03'0 0.0
2018-Feb-16 03:07N 18°01' W 063°03'0 0.0
2018-Feb-16 02:52N 18°01' W 063°03'0 0.0
2018-Feb-16 02:23N 18°01' W 063°03'0 0.0
2018-Feb-16 01:49N 18°01' W 063°03'0 0.1
2018-Feb-16 01:22N 18°01' W 063°03'0 0.0
2018-Feb-15 23:52N 18°01' W 063°03'0 0.0
2018-Feb-15 23:08N 18°01' W 063°03'0 0.2
2018-Feb-15 22:55N 18°01' W 063°03'0 0.0
2018-Feb-15 22:25N 18°01' W 063°03'0 0.3
2018-Feb-15 21:59N 18°01' W 063°03'0 0.0
2018-Feb-15 12:21N 18°01' W 063°03'0 0.5
2018-Feb-15 11:50N 18°01' W 063°03'0 0.0
2018-Feb-15 11:23N 18°01' W 063°03'0 0.0
2018-Feb-15 06:08N 18°01' W 063°03'0 0.0
2018-Feb-15 05:56N 18°01' W 063°03'0 0.0
2018-Feb-15 05:26N 18°01' W 063°03'0 0.0
2018-Feb-15 04:26N 18°01' W 063°03'0 0.1
2018-Feb-15 03:56N 18°01' W 063°03'0 0.1
2018-Feb-15 01:45N 18°01' W 063°03'0 0.1
2018-Feb-14 23:21N 18°01' W 063°03'0 0.0
2018-Feb-14 22:51N 18°01' W 063°03'0 0.0
2018-Feb-14 22:22N 18°01' W 063°03'0 0.0
2018-Feb-14 21:37N 18°01' W 063°03'0 0.0
2018-Feb-14 21:10N 18°01' W 063°03'0 0.4
2018-Feb-14 20:05N 18°00' W 063°03'0 1.5
2018-Feb-14 19:58N 18°00' W 063°03'1 0.5
2018-Feb-14 18:43N 18°01' W 063°03'0 0.1
2018-Feb-14 18:28N 18°01' W 063°03'0 0.0
2018-Feb-14 17:55N 18°01' W 063°03'0 0.0
2018-Feb-14 13:49N 18°01' W 063°03'0 0.1
2018-Feb-14 13:16N 18°01' W 063°03'0 0.0
2018-Feb-14 12:49N 18°01' W 063°03'0 0.0
2018-Feb-14 11:22N 18°01' W 063°03'0 0.0
2018-Feb-14 09:52N 18°01' W 063°03'0 0.0
2018-Feb-14 08:22N 18°01' W 063°03'0 0.0
2018-Feb-14 07:55N 18°01' W 063°03'0 0.0
2018-Feb-14 07:22N 18°01' W 063°03'0 0.0
2018-Feb-14 06:55N 18°01' W 063°03'0 0.0
2018-Feb-14 05:40N 18°01' W 063°03'0 0.0
2018-Feb-14 03:46N 18°01' W 063°03'0 0.0
2018-Feb-14 03:01N 18°01' W 063°03'0 0.0
2018-Feb-14 02:58N 18°01' W 063°03'0 0.0
2018-Feb-14 01:46N 18°01' W 063°03'0 0.0
2018-Feb-14 01:19N 18°01' W 063°03'0 0.0
2018-Feb-14 00:46N 18°01' W 063°03'0 0.1
2018-Feb-13 22:46N 18°01' W 063°03'0 0.8
2018-Feb-13 22:29N 18°01' W 063°03'0 0.0
2018-Feb-13 20:29N 18°01' W 063°03'0 0.0
2018-Feb-13 19:47N 18°01' W 063°03'0 0.0
2018-Feb-13 19:17N 18°01' W 063°03'0 0.0
2018-Feb-13 17:59N 18°01' W 063°03'0 0.0
2018-Feb-13 15:47N 18°01' W 063°03'1 1.9
2018-Feb-13 15:30N 18°01' W 063°03'1 0.6
2018-Feb-13 14:36N 18°01' W 063°03'0 0.0
2018-Feb-13 14:03N 18°01' W 063°03'0 0.1
2018-Feb-13 13:54N 18°01' W 063°03'0 0.0
2018-Feb-13 13:06N 18°01' W 063°03'0 0.0
2018-Feb-13 12:54N 18°01' W 063°03'0 0.1
2018-Feb-13 12:24N 18°01' W 063°03'0 0.0
2018-Feb-13 11:42N 18°01' W 063°03'0 0.0
2018-Feb-13 11:27N 18°01' W 063°03'0 0.0
2018-Feb-13 10:57N 18°01' W 063°03'0 0.0
2018-Feb-13 08:45N 18°01' W 063°03'0 0.1
2018-Feb-13 08:30N 18°01' W 063°03'0 0.0
2018-Feb-13 06:12N 18°01' W 063°03'0 0.0
2018-Feb-13 05:18N 18°01' W 063°03'0 0.0
2018-Feb-13 05:00N 18°01' W 063°03'0 0.0
2018-Feb-13 01:36N 18°01' W 063°03'0 0.0
2018-Feb-13 01:06N 18°01' W 063°03'0 0.3
2018-Feb-13 00:07N 18°00' W 063°03'0 1.4
2018-Feb-12 23:51N 18°00' W 063°03'0 0.0
2018-Feb-12 23:22N 18°00' W 063°03'0 0.0
2018-Feb-12 22:52N 18°00' W 063°03'0 0.0
2018-Feb-12 22:21N 18°00' W 063°03'0 0.0
2018-Feb-12 22:00N 18°00' W 063°03'0 0.0
2018-Feb-12 21:18N 18°00' W 063°03'0 0.0
2018-Feb-12 20:54N 18°00' W 063°03'0 0.0
2018-Feb-12 19:34N 18°00' W 063°03'0 0.0
2018-Feb-12 19:30N 18°00' W 063°03'0 0.0
2018-Feb-12 18:54N 18°00' W 063°03'1 1.3
2018-Feb-12 18:29N 18°01' W 063°03'0 0.1
2018-Feb-12 17:52N 18°01' W 063°03'0 0.0
2018-Feb-12 17:29N 18°01' W 063°03'0 0.0
2018-Feb-12 16:52N 18°01' W 063°03'0 0.0
2018-Feb-12 13:56N 18°01' W 063°03'0 0.5
2018-Feb-12 13:27N 18°00' W 063°03'0 0.5
2018-Feb-12 12:49N 18°01' W 063°03'0 0.0
2018-Feb-12 12:04N 18°01' W 063°03'0 0.1
2018-Feb-12 11:53N 18°01' W 063°03'0 0.0
2018-Feb-12 11:30N 18°01' W 063°03'0 0.4
2018-Feb-12 10:52N 18°00' W 063°03'0 0.9
2018-Feb-12 10:29N 18°00' W 063°03'0 0.0
2018-Feb-12 10:00N 18°00' W 063°03'0 0.0
2018-Feb-12 09:28N 18°00' W 063°03'0 0.0
2018-Feb-12 08:53N 18°00' W 063°03'0 0.0
2018-Feb-12 08:19N 18°00' W 063°03'0 0.0
2018-Feb-12 07:57N 18°00' W 063°03'0 0.0
2018-Feb-12 07:29N 18°00' W 063°03'0 0.0
2018-Feb-12 06:57N 18°00' W 063°03'0 0.0
2018-Feb-12 06:12N 18°00' W 063°03'0 0.0
2018-Feb-12 06:00N 18°00' W 063°03'0 0.0
2018-Feb-12 05:26N 18°00' W 063°03'0 0.0
2018-Feb-12 05:00N 18°00' W 063°03'0 0.0
2018-Feb-12 04:29N 18°00' W 063°03'0 0.0
2018-Feb-12 03:58N 18°00' W 063°03'0 0.5
2018-Feb-12 02:58N 18°01' W 063°03'0 0.0
2018-Feb-12 02:29N 18°01' W 063°03'0 0.0
2018-Feb-12 01:46N 18°01' W 063°03'0 0.0
2018-Feb-12 01:21N 18°01' W 063°03'0 0.0
2018-Feb-12 00:59N 18°01' W 063°03'0 0.0
2018-Feb-11 23:38N 18°01' W 063°03'0 0.1
2018-Feb-11 23:23N 18°01' W 063°03'0 0.0
2018-Feb-11 22:59N 18°01' W 063°03'0 0.0
2018-Feb-11 22:20N 18°01' W 063°03'0 0.0
2018-Feb-11 21:40N 18°01' W 063°03'0 0.1
2018-Feb-11 21:26N 18°01' W 063°03'0 0.0
2018-Feb-11 20:33N 18°01' W 063°03'0 0.2
2018-Feb-11 20:28N 18°01' W 063°03'0 0.0
2018-Feb-11 18:28N 18°01' W 063°03'0 0.0
2018-Feb-11 17:59N 18°01' W 063°03'0 0.0
2018-Feb-11 16:58N 18°01' W 063°03'0 0.0
2018-Feb-11 16:12N 18°01' W 063°03'0 0.0
2018-Feb-11 15:38N 18°01' W 063°03'0 0.0
2018-Feb-11 14:49N 18°01' W 063°03'0 0.0
2018-Feb-11 14:29N 18°01' W 063°03'0 0.0
2018-Feb-11 13:57N 18°01' W 063°03'0 0.0
2018-Feb-11 13:17N 18°01' W 063°03'0 0.0
2018-Feb-11 12:58N 18°01' W 063°03'0 0.1
2018-Feb-11 12:28N 18°01' W 063°03'0 0.2
2018-Feb-11 11:54N 18°01' W 063°03'0 0.0
2018-Feb-11 11:22N 18°01' W 063°03'0 0.0
2018-Feb-11 06:16N 18°01' W 063°03'0 1.6
2018-Feb-11 06:00N 18°00' W 063°03'0 0.4
2018-Feb-11 04:55N 18°01' W 063°03'0 0.0
2018-Feb-11 04:28N 18°01' W 063°03'0 0.1
2018-Feb-10 23:49N 18°01' W 063°03'0 0.8
2018-Feb-10 23:24N 18°01' W 063°03'0 0.0
2018-Feb-10 22:54N 18°01' W 063°03'0 0.0
2018-Feb-10 22:27N 18°01' W 063°03'1 0.6
2018-Feb-10 21:33N 18°01' W 063°03'0 0.0
2018-Feb-10 20:32N 18°01' W 063°03'0 0.1
2018-Feb-10 20:18N 18°01' W 063°03'0 0.0
2018-Feb-10 20:00N 18°01' W 063°03'0 0.2
2018-Feb-10 18:50N 18°01' W 063°03'0 0.3
2018-Feb-10 18:26N 18°01' W 063°03'1 2.6
2018-Feb-10 17:59N 18°00' W 063°05'2 2.2
2018-Feb-10 17:00N 17°58' W 063°06'2 4.7
2018-Feb-10 16:29N 17°56' W 063°05'2 5.0
2018-Feb-10 15:59N 17°54' W 063°04'3 4.7
2018-Feb-10 15:27N 17°51' W 063°02'2 4.5
2018-Feb-10 14:56N 17°49' W 063°02'2 4.4
2018-Feb-10 14:27N 17°47' W 063°01'2 4.3
2018-Feb-10 13:59N 17°45' W 063°01'2 4.2
2018-Feb-10 13:28N 17°43' W 063°01'3 4.1
2018-Feb-10 12:42N 17°40' W 063°01'1 4.4
2018-Feb-10 12:27N 17°39' W 063°01'2 4.1
2018-Feb-10 12:00N 17°37' W 063°02'2 4.0
2018-Feb-10 11:29N 17°35' W 063°02'2 4.2
2018-Feb-10 10:58N 17°33' W 063°03'2 4.5
2018-Feb-10 10:29N 17°31' W 063°03'8 4.9
2018-Feb-10 08:55N 17°25' W 062°58'13 5.5
2018-Feb-10 06:28N 17°16' W 062°47'  
2018-Feb-07 22:13N 17°29' W 063°00'  

Dump ship's entire track history